sensor_id;sensor_type;location;lat;lon;timestamp;temperature;humidity
10828;DHT22;5467;59.334;13.512;2023-03-16T00:01:08;-1.20;99.90
10828;DHT22;5467;59.334;13.512;2023-03-16T00:03:36;-1.30;99.90
10828;DHT22;5467;59.334;13.512;2023-03-16T00:06:05;-1.30;99.90
10828;DHT22;5467;59.334;13.512;2023-03-16T00:08:32;-1.20;99.90
10828;DHT22;5467;59.334;13.512;2023-03-16T00:11:00;-1.20;99.90
10828;DHT22;5467;59.334;13.512;2023-03-16T00:13:28;-1.20;99.90
10828;DHT22;5467;59.334;13.512;2023-03-16T00:15:57;-1.20;99.90
10828;DHT22;5467;59.334;13.512;2023-03-16T00:18:26;-1.20;99.90
10828;DHT22;5467;59.334;13.512;2023-03-16T00:20:54;-1.20;99.90
10828;DHT22;5467;59.334;13.512;2023-03-16T00:23:25;-1.30;99.90
10828;DHT22;5467;59.334;13.512;2023-03-16T00:25:53;-1.30;99.90
10828;DHT22;5467;59.334;13.512;2023-03-16T00:28:20;-1.40;99.90
10828;DHT22;5467;59.334;13.512;2023-03-16T00:30:48;-1.40;99.90
10828;DHT22;5467;59.334;13.512;2023-03-16T00:33:15;-1.40;99.90
10828;DHT22;5467;59.334;13.512;2023-03-16T00:35:45;-1.30;99.90
10828;DHT22;5467;59.334;13.512;2023-03-16T00:38:15;-1.30;99.90
10828;DHT22;5467;59.334;13.512;2023-03-16T00:40:44;-1.30;99.90
10828;DHT22;5467;59.334;13.512;2023-03-16T00:43:12;-1.30;99.90
10828;DHT22;5467;59.334;13.512;2023-03-16T00:45:43;-1.30;99.90
10828;DHT22;5467;59.334;13.512;2023-03-16T00:48:10;-1.30;99.90
10828;DHT22;5467;59.334;13.512;2023-03-16T00:50:38;-1.30;99.90
10828;DHT22;5467;59.334;13.512;2023-03-16T00:53:06;-1.40;99.90
10828;DHT22;5467;59.334;13.512;2023-03-16T00:55:34;-1.50;99.90
10828;DHT22;5467;59.334;13.512;2023-03-16T00:58:02;-1.50;99.90
10828;DHT22;5467;59.334;13.512;2023-03-16T01:00:29;-1.50;99.90
10828;DHT22;5467;59.334;13.512;2023-03-16T01:02:57;-1.50;99.90
10828;DHT22;5467;59.334;13.512;2023-03-16T01:05:24;-1.50;99.90
10828;DHT22;5467;59.334;13.512;2023-03-16T01:07:51;-1.50;99.90
10828;DHT22;5467;59.334;13.512;2023-03-16T01:10:18;-1.40;99.90
10828;DHT22;5467;59.334;13.512;2023-03-16T01:12:45;-1.40;99.90
10828;DHT22;5467;59.334;13.512;2023-03-16T01:15:14;-1.40;99.90
10828;DHT22;5467;59.334;13.512;2023-03-16T01:17:41;-1.50;99.90
10828;DHT22;5467;59.334;13.512;2023-03-16T01:20:10;-1.60;99.90
10828;DHT22;5467;59.334;13.512;2023-03-16T01:22:39;-1.50;99.90
10828;DHT22;5467;59.334;13.512;2023-03-16T01:25:09;-1.60;99.90
10828;DHT22;5467;59.334;13.512;2023-03-16T01:27:36;-1.60;99.90
10828;DHT22;5467;59.334;13.512;2023-03-16T01:30:04;-1.60;99.90
10828;DHT22;5467;59.334;13.512;2023-03-16T01:32:33;-1.80;99.90
10828;DHT22;5467;59.334;13.512;2023-03-16T01:35:00;-2.00;99.90
10828;DHT22;5467;59.334;13.512;2023-03-16T01:37:27;-2.10;99.90
10828;DHT22;5467;59.334;13.512;2023-03-16T01:39:54;-2.20;99.90
10828;DHT22;5467;59.334;13.512;2023-03-16T01:42:21;-2.30;99.90
10828;DHT22;5467;59.334;13.512;2023-03-16T01:44:51;-2.40;99.90
10828;DHT22;5467;59.334;13.512;2023-03-16T01:47:19;-2.60;99.90
10828;DHT22;5467;59.334;13.512;2023-03-16T01:49:49;-2.60;99.90
10828;DHT22;5467;59.334;13.512;2023-03-16T01:52:22;-2.60;99.90
10828;DHT22;5467;59.334;13.512;2023-03-16T01:54:53;-2.50;99.90
10828;DHT22;5467;59.334;13.512;2023-03-16T01:57:23;-2.50;99.90
10828;DHT22;5467;59.334;13.512;2023-03-16T01:59:58;-2.40;99.90
10828;DHT22;5467;59.334;13.512;2023-03-16T02:02:45;-2.50;99.90
10828;DHT22;5467;59.334;13.512;2023-03-16T02:05:18;-2.70;99.90
10828;DHT22;5467;59.334;13.512;2023-03-16T02:07:48;-2.80;99.90
10828;DHT22;5467;59.334;13.512;2023-03-16T02:10:19;-2.90;99.90
10828;DHT22;5467;59.334;13.512;2023-03-16T02:12:46;-3.00;99.90
10828;DHT22;5467;59.334;13.512;2023-03-16T02:15:13;-3.10;99.90
10828;DHT22;5467;59.334;13.512;2023-03-16T02:17:42;-3.20;99.90
10828;DHT22;5467;59.334;13.512;2023-03-16T02:20:21;-3.20;99.90
10828;DHT22;5467;59.334;13.512;2023-03-16T02:22:52;-3.10;99.90
10828;DHT22;5467;59.334;13.512;2023-03-16T02:25:28;-3.20;99.90
10828;DHT22;5467;59.334;13.512;2023-03-16T02:28:03;-3.30;99.90
10828;DHT22;5467;59.334;13.512;2023-03-16T02:30:35;-3.30;99.90
10828;DHT22;5467;59.334;13.512;2023-03-16T02:33:03;-3.30;99.90
10828;DHT22;5467;59.334;13.512;2023-03-16T02:35:30;-3.20;99.90
10828;DHT22;5467;59.334;13.512;2023-03-16T02:37:58;-3.20;99.90
10828;DHT22;5467;59.334;13.512;2023-03-16T02:40:29;-3.20;99.90
10828;DHT22;5467;59.334;13.512;2023-03-16T02:43:00;-3.10;99.90
10828;DHT22;5467;59.334;13.512;2023-03-16T02:45:30;-3.10;99.90
10828;DHT22;5467;59.334;13.512;2023-03-16T02:48:04;-3.00;99.90
10828;DHT22;5467;59.334;13.512;2023-03-16T02:50:33;-2.90;99.90
10828;DHT22;5467;59.334;13.512;2023-03-16T02:53:01;-2.90;99.90
10828;DHT22;5467;59.334;13.512;2023-03-16T02:55:28;-2.90;99.90
10828;DHT22;5467;59.334;13.512;2023-03-16T02:57:55;-3.00;99.90
10828;DHT22;5467;59.334;13.512;2023-03-16T03:00:22;-2.90;99.90
10828;DHT22;5467;59.334;13.512;2023-03-16T03:02:49;-2.90;99.90
10828;DHT22;5467;59.334;13.512;2023-03-16T03:05:19;-3.00;99.90
10828;DHT22;5467;59.334;13.512;2023-03-16T03:07:46;-3.00;99.90
10828;DHT22;5467;59.334;13.512;2023-03-16T03:10:14;-3.00;99.90
10828;DHT22;5467;59.334;13.512;2023-03-16T03:12:41;-3.10;99.90
10828;DHT22;5467;59.334;13.512;2023-03-16T03:15:09;-3.20;99.90
10828;DHT22;5467;59.334;13.512;2023-03-16T03:17:36;-3.40;99.90
10828;DHT22;5467;59.334;13.512;2023-03-16T03:20:04;-3.50;99.90
10828;DHT22;5467;59.334;13.512;2023-03-16T03:22:39;-3.60;99.90
10828;DHT22;5467;59.334;13.512;2023-03-16T03:25:07;-3.70;99.90
10828;DHT22;5467;59.334;13.512;2023-03-16T03:27:34;-3.80;99.90
10828;DHT22;5467;59.334;13.512;2023-03-16T03:30:02;-3.80;99.90
10828;DHT22;5467;59.334;13.512;2023-03-16T03:32:29;-3.80;99.90
10828;DHT22;5467;59.334;13.512;2023-03-16T03:34:56;-3.80;99.90
10828;DHT22;5467;59.334;13.512;2023-03-16T03:37:23;-3.70;99.90
10828;DHT22;5467;59.334;13.512;2023-03-16T03:39:52;-3.60;99.90
10828;DHT22;5467;59.334;13.512;2023-03-16T03:42:19;-3.50;99.90
10828;DHT22;5467;59.334;13.512;2023-03-16T03:44:48;-3.40;99.90
10828;DHT22;5467;59.334;13.512;2023-03-16T03:47:15;-3.30;99.90
10828;DHT22;5467;59.334;13.512;2023-03-16T03:49:42;-3.30;99.90
10828;DHT22;5467;59.334;13.512;2023-03-16T03:52:10;-3.20;99.90
10828;DHT22;5467;59.334;13.512;2023-03-16T03:54:37;-3.10;99.90
10828;DHT22;5467;59.334;13.512;2023-03-16T03:57:06;-3.10;99.90
10828;DHT22;5467;59.334;13.512;2023-03-16T03:59:33;-3.10;99.90
10828;DHT22;5467;59.334;13.512;2023-03-16T04:02:07;-3.20;99.90
10828;DHT22;5467;59.334;13.512;2023-03-16T04:04:34;-3.20;99.90
10828;DHT22;5467;59.334;13.512;2023-03-16T04:07:02;-3.40;99.90
10828;DHT22;5467;59.334;13.512;2023-03-16T04:09:29;-3.60;99.90
10828;DHT22;5467;59.334;13.512;2023-03-16T04:11:58;-3.60;99.90
10828;DHT22;5467;59.334;13.512;2023-03-16T04:14:27;-3.70;99.90
10828;DHT22;5467;59.334;13.512;2023-03-16T04:16:55;-3.80;99.90
10828;DHT22;5467;59.334;13.512;2023-03-16T04:19:23;-3.90;99.90
10828;DHT22;5467;59.334;13.512;2023-03-16T04:21:50;-4.00;99.90
10828;DHT22;5467;59.334;13.512;2023-03-16T04:24:18;-4.10;99.90
10828;DHT22;5467;59.334;13.512;2023-03-16T04:26:45;-4.20;99.90
10828;DHT22;5467;59.334;13.512;2023-03-16T04:29:12;-4.20;99.90
10828;DHT22;5467;59.334;13.512;2023-03-16T04:31:44;-4.20;99.90
10828;DHT22;5467;59.334;13.512;2023-03-16T04:34:12;-4.30;99.90
10828;DHT22;5467;59.334;13.512;2023-03-16T04:36:39;-4.30;99.90
10828;DHT22;5467;59.334;13.512;2023-03-16T04:39:07;-4.20;99.90
10828;DHT22;5467;59.334;13.512;2023-03-16T04:41:35;-4.10;99.90
10828;DHT22;5467;59.334;13.512;2023-03-16T04:44:03;-4.00;99.90
10828;DHT22;5467;59.334;13.512;2023-03-16T04:46:30;-3.90;99.90
10828;DHT22;5467;59.334;13.512;2023-03-16T04:48:59;-3.90;99.90
10828;DHT22;5467;59.334;13.512;2023-03-16T04:51:26;-3.90;99.90
10828;DHT22;5467;59.334;13.512;2023-03-16T04:53:53;-3.80;99.90
10828;DHT22;5467;59.334;13.512;2023-03-16T04:56:20;-3.90;99.90
10828;DHT22;5467;59.334;13.512;2023-03-16T04:58:49;-3.90;99.90
10828;DHT22;5467;59.334;13.512;2023-03-16T05:01:16;-3.90;99.90
10828;DHT22;5467;59.334;13.512;2023-03-16T05:03:44;-3.90;99.90
10828;DHT22;5467;59.334;13.512;2023-03-16T05:06:12;-4.00;99.90
10828;DHT22;5467;59.334;13.512;2023-03-16T05:08:39;-4.10;99.90
10828;DHT22;5467;59.334;13.512;2023-03-16T05:11:06;-4.00;99.90
10828;DHT22;5467;59.334;13.512;2023-03-16T05:13:34;-4.10;99.90
10828;DHT22;5467;59.334;13.512;2023-03-16T05:16:01;-4.20;99.90
10828;DHT22;5467;59.334;13.512;2023-03-16T05:18:28;-4.20;99.90
10828;DHT22;5467;59.334;13.512;2023-03-16T05:20:55;-4.20;99.90
10828;DHT22;5467;59.334;13.512;2023-03-16T05:23:24;-4.20;99.90
10828;DHT22;5467;59.334;13.512;2023-03-16T05:25:52;-4.10;99.90
10828;DHT22;5467;59.334;13.512;2023-03-16T05:28:21;-4.10;99.90
10828;DHT22;5467;59.334;13.512;2023-03-16T05:30:48;-4.00;99.90
10828;DHT22;5467;59.334;13.512;2023-03-16T05:33:16;-4.00;99.90
10828;DHT22;5467;59.334;13.512;2023-03-16T05:35:43;-3.90;99.90
10828;DHT22;5467;59.334;13.512;2023-03-16T05:38:10;-3.90;99.90
10828;DHT22;5467;59.334;13.512;2023-03-16T05:40:39;-3.90;99.90
10828;DHT22;5467;59.334;13.512;2023-03-16T05:43:07;-3.90;99.90
10828;DHT22;5467;59.334;13.512;2023-03-16T05:45:34;-3.90;99.90
10828;DHT22;5467;59.334;13.512;2023-03-16T05:48:01;-3.90;99.90
10828;DHT22;5467;59.334;13.512;2023-03-16T05:50:30;-3.90;99.90
10828;DHT22;5467;59.334;13.512;2023-03-16T05:52:57;-4.10;99.90
10828;DHT22;5467;59.334;13.512;2023-03-16T05:55:24;-4.10;99.90
10828;DHT22;5467;59.334;13.512;2023-03-16T05:57:53;-4.20;99.90
10828;DHT22;5467;59.334;13.512;2023-03-16T06:00:20;-4.20;99.90
10828;DHT22;5467;59.334;13.512;2023-03-16T06:02:50;-4.30;99.90
10828;DHT22;5467;59.334;13.512;2023-03-16T06:05:19;-4.20;99.90
10828;DHT22;5467;59.334;13.512;2023-03-16T06:07:49;-4.10;99.90
10828;DHT22;5467;59.334;13.512;2023-03-16T06:10:17;-4.10;99.90
10828;DHT22;5467;59.334;13.512;2023-03-16T06:12:45;-4.00;99.90
10828;DHT22;5467;59.334;13.512;2023-03-16T06:15:13;-4.00;99.90
10828;DHT22;5467;59.334;13.512;2023-03-16T06:17:41;-4.00;99.90
10828;DHT22;5467;59.334;13.512;2023-03-16T06:20:10;-4.00;99.90
10828;DHT22;5467;59.334;13.512;2023-03-16T06:22:38;-4.00;99.90
10828;DHT22;5467;59.334;13.512;2023-03-16T06:25:07;-3.90;99.90
10828;DHT22;5467;59.334;13.512;2023-03-16T06:27:35;-3.90;99.90
10828;DHT22;5467;59.334;13.512;2023-03-16T06:30:03;-3.80;99.90
10828;DHT22;5467;59.334;13.512;2023-03-16T06:32:32;-3.70;99.90
10828;DHT22;5467;59.334;13.512;2023-03-16T06:35:00;-3.60;99.90
10828;DHT22;5467;59.334;13.512;2023-03-16T06:37:29;-3.50;99.90
10828;DHT22;5467;59.334;13.512;2023-03-16T06:39:56;-3.40;99.90
10828;DHT22;5467;59.334;13.512;2023-03-16T06:42:24;-3.30;99.90
10828;DHT22;5467;59.334;13.512;2023-03-16T06:44:51;-3.20;99.90
10828;DHT22;5467;59.334;13.512;2023-03-16T06:47:19;-3.00;99.90
10828;DHT22;5467;59.334;13.512;2023-03-16T06:49:48;-2.80;99.90
10828;DHT22;5467;59.334;13.512;2023-03-16T06:52:16;-2.70;99.90
10828;DHT22;5467;59.334;13.512;2023-03-16T06:54:43;-2.60;99.90
10828;DHT22;5467;59.334;13.512;2023-03-16T06:57:10;-2.50;99.90
10828;DHT22;5467;59.334;13.512;2023-03-16T06:59:38;-2.50;99.90
10828;DHT22;5467;59.334;13.512;2023-03-16T07:02:06;-2.30;99.90
10828;DHT22;5467;59.334;13.512;2023-03-16T07:04:33;-2.30;99.90
10828;DHT22;5467;59.334;13.512;2023-03-16T07:07:01;-2.20;99.90
10828;DHT22;5467;59.334;13.512;2023-03-16T07:09:28;-2.30;99.90
10828;DHT22;5467;59.334;13.512;2023-03-16T07:11:56;-2.10;99.90
10828;DHT22;5467;59.334;13.512;2023-03-16T07:14:23;-2.00;99.90
10828;DHT22;5467;59.334;13.512;2023-03-16T07:16:51;-2.00;99.90
10828;DHT22;5467;59.334;13.512;2023-03-16T07:19:18;-2.00;99.90
10828;DHT22;5467;59.334;13.512;2023-03-16T07:21:47;-2.00;99.90
10828;DHT22;5467;59.334;13.512;2023-03-16T07:24:15;-1.90;99.90
10828;DHT22;5467;59.334;13.512;2023-03-16T07:26:42;-1.80;99.90
10828;DHT22;5467;59.334;13.512;2023-03-16T07:29:11;-1.70;99.90
10828;DHT22;5467;59.334;13.512;2023-03-16T07:31:39;-1.60;99.90
10828;DHT22;5467;59.334;13.512;2023-03-16T07:34:06;-1.50;99.90
10828;DHT22;5467;59.334;13.512;2023-03-16T07:36:33;-1.40;99.90
10828;DHT22;5467;59.334;13.512;2023-03-16T07:39:00;-1.30;99.90
10828;DHT22;5467;59.334;13.512;2023-03-16T07:41:29;-1.10;99.90
10828;DHT22;5467;59.334;13.512;2023-03-16T07:43:56;-1.10;99.90
10828;DHT22;5467;59.334;13.512;2023-03-16T07:46:24;-1.00;99.90
10828;DHT22;5467;59.334;13.512;2023-03-16T07:48:51;-0.90;99.90
10828;DHT22;5467;59.334;13.512;2023-03-16T07:51:18;-0.80;99.90
10828;DHT22;5467;59.334;13.512;2023-03-16T07:53:46;-0.70;99.90
10828;DHT22;5467;59.334;13.512;2023-03-16T07:56:13;-0.50;99.90
10828;DHT22;5467;59.334;13.512;2023-03-16T07:58:41;-0.20;99.90
10828;DHT22;5467;59.334;13.512;2023-03-16T08:01:08;-0.20;99.90
10828;DHT22;5467;59.334;13.512;2023-03-16T08:03:37;-0.10;99.90
10828;DHT22;5467;59.334;13.512;2023-03-16T08:06:05;0.00;99.90
10828;DHT22;5467;59.334;13.512;2023-03-16T08:08:32;0.20;99.90
10828;DHT22;5467;59.334;13.512;2023-03-16T08:10:59;0.30;99.90
10828;DHT22;5467;59.334;13.512;2023-03-16T08:13:27;0.60;99.90
10828;DHT22;5467;59.334;13.512;2023-03-16T08:15:56;0.80;99.90
10828;DHT22;5467;59.334;13.512;2023-03-16T08:18:27;1.00;99.90
10828;DHT22;5467;59.334;13.512;2023-03-16T08:20:54;1.30;99.90
10828;DHT22;5467;59.334;13.512;2023-03-16T08:23:22;1.40;99.90
10828;DHT22;5467;59.334;13.512;2023-03-16T08:25:51;1.60;99.90
10828;DHT22;5467;59.334;13.512;2023-03-16T08:28:18;1.80;99.90
10828;DHT22;5467;59.334;13.512;2023-03-16T08:30:47;2.00;99.90
10828;DHT22;5467;59.334;13.512;2023-03-16T08:33:17;2.20;99.90
10828;DHT22;5467;59.334;13.512;2023-03-16T08:35:45;2.40;99.90
10828;DHT22;5467;59.334;13.512;2023-03-16T08:38:14;2.70;99.90
10828;DHT22;5467;59.334;13.512;2023-03-16T08:40:42;2.70;99.90
10828;DHT22;5467;59.334;13.512;2023-03-16T08:43:13;2.60;99.90
10828;DHT22;5467;59.334;13.512;2023-03-16T08:45:41;2.50;99.90
10828;DHT22;5467;59.334;13.512;2023-03-16T08:48:10;2.60;99.90
10828;DHT22;5467;59.334;13.512;2023-03-16T08:50:40;2.60;99.90
10828;DHT22;5467;59.334;13.512;2023-03-16T08:53:09;2.40;99.90
10828;DHT22;5467;59.334;13.512;2023-03-16T08:55:37;2.60;99.90
10828;DHT22;5467;59.334;13.512;2023-03-16T08:58:06;2.90;99.90
10828;DHT22;5467;59.334;13.512;2023-03-16T09:00:33;3.00;99.90
10828;DHT22;5467;59.334;13.512;2023-03-16T09:03:01;3.10;99.90
10828;DHT22;5467;59.334;13.512;2023-03-16T09:05:28;3.00;99.90
10828;DHT22;5467;59.334;13.512;2023-03-16T09:07:57;3.20;99.90
10828;DHT22;5467;59.334;13.512;2023-03-16T09:10:24;3.40;99.90
10828;DHT22;5467;59.334;13.512;2023-03-16T09:12:52;3.60;99.90
10828;DHT22;5467;59.334;13.512;2023-03-16T09:15:20;3.60;99.90
10828;DHT22;5467;59.334;13.512;2023-03-16T09:17:47;3.70;99.90
10828;DHT22;5467;59.334;13.512;2023-03-16T09:20:16;3.70;99.90
10828;DHT22;5467;59.334;13.512;2023-03-16T09:22:43;3.70;99.90
10828;DHT22;5467;59.334;13.512;2023-03-16T09:25:13;3.40;99.90
10828;DHT22;5467;59.334;13.512;2023-03-16T09:27:40;3.40;99.90
10828;DHT22;5467;59.334;13.512;2023-03-16T09:30:08;3.70;99.90
10828;DHT22;5467;59.334;13.512;2023-03-16T09:32:36;3.30;99.90
10828;DHT22;5467;59.334;13.512;2023-03-16T09:35:04;3.40;99.90
10828;DHT22;5467;59.334;13.512;2023-03-16T09:37:32;3.70;99.90
10828;DHT22;5467;59.334;13.512;2023-03-16T09:39:59;3.70;99.90
10828;DHT22;5467;59.334;13.512;2023-03-16T09:42:32;3.60;99.90
10828;DHT22;5467;59.334;13.512;2023-03-16T09:45:11;3.60;99.90
10828;DHT22;5467;59.334;13.512;2023-03-16T09:47:40;3.70;99.90
10828;DHT22;5467;59.334;13.512;2023-03-16T09:50:14;3.90;99.90
10828;DHT22;5467;59.334;13.512;2023-03-16T09:52:52;4.10;99.90
10828;DHT22;5467;59.334;13.512;2023-03-16T09:55:26;4.30;99.90
10828;DHT22;5467;59.334;13.512;2023-03-16T09:57:56;4.40;99.90
10828;DHT22;5467;59.334;13.512;2023-03-16T10:00:26;4.50;99.90
10828;DHT22;5467;59.334;13.512;2023-03-16T10:03:04;4.50;99.90
10828;DHT22;5467;59.334;13.512;2023-03-16T10:05:38;4.50;99.90
10828;DHT22;5467;59.334;13.512;2023-03-16T10:08:10;4.60;99.90
10828;DHT22;5467;59.334;13.512;2023-03-16T10:10:58;4.90;99.90
10828;DHT22;5467;59.334;13.512;2023-03-16T10:13:35;5.00;99.90
10828;DHT22;5467;59.334;13.512;2023-03-16T10:16:07;5.00;99.90
10828;DHT22;5467;59.334;13.512;2023-03-16T10:18:40;4.90;99.90
10828;DHT22;5467;59.334;13.512;2023-03-16T10:21:13;5.00;99.90
10828;DHT22;5467;59.334;13.512;2023-03-16T10:23:42;5.10;99.90
10828;DHT22;5467;59.334;13.512;2023-03-16T10:26:14;5.10;99.90
10828;DHT22;5467;59.334;13.512;2023-03-16T10:28:44;5.30;99.90
10828;DHT22;5467;59.334;13.512;2023-03-16T10:31:20;5.30;99.90
10828;DHT22;5467;59.334;13.512;2023-03-16T10:33:48;5.30;99.90
10828;DHT22;5467;59.334;13.512;2023-03-16T10:36:23;5.30;99.90
10828;DHT22;5467;59.334;13.512;2023-03-16T10:38:53;5.20;99.90
10828;DHT22;5467;59.334;13.512;2023-03-16T10:41:25;5.20;99.90
10828;DHT22;5467;59.334;13.512;2023-03-16T10:43:56;5.30;99.90
10828;DHT22;5467;59.334;13.512;2023-03-16T10:46:26;5.30;99.90
10828;DHT22;5467;59.334;13.512;2023-03-16T10:48:54;5.40;99.90
10828;DHT22;5467;59.334;13.512;2023-03-16T10:51:26;5.40;99.90
10828;DHT22;5467;59.334;13.512;2023-03-16T10:54:00;5.40;99.90
10828;DHT22;5467;59.334;13.512;2023-03-16T10:56:33;5.40;99.90
10828;DHT22;5467;59.334;13.512;2023-03-16T10:59:23;5.30;99.90
10828;DHT22;5467;59.334;13.512;2023-03-16T11:01:53;5.20;99.90
10828;DHT22;5467;59.334;13.512;2023-03-16T11:04:20;5.10;99.90
10828;DHT22;5467;59.334;13.512;2023-03-16T11:06:51;4.80;99.90
10828;DHT22;5467;59.334;13.512;2023-03-16T11:09:22;4.60;99.90
10828;DHT22;5467;59.334;13.512;2023-03-16T11:11:51;4.80;99.90
10828;DHT22;5467;59.334;13.512;2023-03-16T11:14:24;4.90;99.90
10828;DHT22;5467;59.334;13.512;2023-03-16T11:16:58;5.00;99.90
10828;DHT22;5467;59.334;13.512;2023-03-16T11:19:29;4.90;99.90
10828;DHT22;5467;59.334;13.512;2023-03-16T11:22:04;4.70;99.90
10828;DHT22;5467;59.334;13.512;2023-03-16T11:24:41;4.80;99.90
10828;DHT22;5467;59.334;13.512;2023-03-16T11:27:16;4.90;99.90
10828;DHT22;5467;59.334;13.512;2023-03-16T11:30:00;4.90;99.90
10828;DHT22;5467;59.334;13.512;2023-03-16T11:32:32;4.90;99.90
10828;DHT22;5467;59.334;13.512;2023-03-16T11:35:00;5.00;99.90
10828;DHT22;5467;59.334;13.512;2023-03-16T11:37:41;5.00;99.90
10828;DHT22;5467;59.334;13.512;2023-03-16T11:40:24;5.00;99.90
10828;DHT22;5467;59.334;13.512;2023-03-16T11:43:01;5.00;99.90
10828;DHT22;5467;59.334;13.512;2023-03-16T11:45:40;4.90;99.90
10828;DHT22;5467;59.334;13.512;2023-03-16T11:48:26;5.10;99.90
10828;DHT22;5467;59.334;13.512;2023-03-16T11:51:08;5.00;99.90
10828;DHT22;5467;59.334;13.512;2023-03-16T11:53:48;4.90;99.90
10828;DHT22;5467;59.334;13.512;2023-03-16T11:56:29;4.90;99.90
10828;DHT22;5467;59.334;13.512;2023-03-16T11:59:26;4.90;99.90
10828;DHT22;5467;59.334;13.512;2023-03-16T12:02:19;4.70;99.90
10828;DHT22;5467;59.334;13.512;2023-03-16T12:04:57;4.60;99.90
10828;DHT22;5467;59.334;13.512;2023-03-16T12:07:42;4.70;99.90
10828;DHT22;5467;59.334;13.512;2023-03-16T12:10:20;4.70;99.90
10828;DHT22;5467;59.334;13.512;2023-03-16T12:12:55;4.70;99.90
10828;DHT22;5467;59.334;13.512;2023-03-16T12:15:31;4.90;99.90
10828;DHT22;5467;59.334;13.512;2023-03-16T12:18:09;5.00;99.90
10828;DHT22;5467;59.334;13.512;2023-03-16T12:20:45;4.80;99.90
10828;DHT22;5467;59.334;13.512;2023-03-16T12:23:16;4.90;99.90
10828;DHT22;5467;59.334;13.512;2023-03-16T12:25:47;5.00;99.90
10828;DHT22;5467;59.334;13.512;2023-03-16T12:28:22;4.90;99.90
10828;DHT22;5467;59.334;13.512;2023-03-16T12:31:02;5.00;99.90
10828;DHT22;5467;59.334;13.512;2023-03-16T12:33:46;5.00;99.90
10828;DHT22;5467;59.334;13.512;2023-03-16T12:36:50;4.90;99.90
10828;DHT22;5467;59.334;13.512;2023-03-16T12:39:30;4.70;99.90
10828;DHT22;5467;59.334;13.512;2023-03-16T12:42:06;4.70;99.90
10828;DHT22;5467;59.334;13.512;2023-03-16T12:44:42;4.70;99.90
10828;DHT22;5467;59.334;13.512;2023-03-16T12:47:18;4.90;99.90
10828;DHT22;5467;59.334;13.512;2023-03-16T12:49:50;4.90;99.90
10828;DHT22;5467;59.334;13.512;2023-03-16T12:52:17;4.90;99.90
10828;DHT22;5467;59.334;13.512;2023-03-16T12:54:49;4.90;99.90
10828;DHT22;5467;59.334;13.512;2023-03-16T12:57:18;4.90;99.90
10828;DHT22;5467;59.334;13.512;2023-03-16T12:59:47;5.00;99.90
10828;DHT22;5467;59.334;13.512;2023-03-16T13:02:18;5.00;99.90
10828;DHT22;5467;59.334;13.512;2023-03-16T13:04:47;4.90;99.90
10828;DHT22;5467;59.334;13.512;2023-03-16T13:07:23;4.80;99.90
10828;DHT22;5467;59.334;13.512;2023-03-16T13:09:53;4.80;99.90
10828;DHT22;5467;59.334;13.512;2023-03-16T13:12:24;4.70;99.90
10828;DHT22;5467;59.334;13.512;2023-03-16T13:14:52;4.50;99.90
10828;DHT22;5467;59.334;13.512;2023-03-16T13:17:27;4.40;99.90
10828;DHT22;5467;59.334;13.512;2023-03-16T13:20:00;4.40;99.90
10828;DHT22;5467;59.334;13.512;2023-03-16T13:22:41;4.50;99.90
10828;DHT22;5467;59.334;13.512;2023-03-16T13:25:15;4.60;99.90
10828;DHT22;5467;59.334;13.512;2023-03-16T13:27:48;4.60;99.90
10828;DHT22;5467;59.334;13.512;2023-03-16T13:30:22;4.60;99.90
10828;DHT22;5467;59.334;13.512;2023-03-16T13:32:53;4.70;99.90
10828;DHT22;5467;59.334;13.512;2023-03-16T13:35:24;4.70;99.90
10828;DHT22;5467;59.334;13.512;2023-03-16T13:37:54;4.70;99.90
10828;DHT22;5467;59.334;13.512;2023-03-16T13:40:23;4.70;99.90
10828;DHT22;5467;59.334;13.512;2023-03-16T13:42:52;4.60;99.90
10828;DHT22;5467;59.334;13.512;2023-03-16T13:45:22;4.60;99.90
10828;DHT22;5467;59.334;13.512;2023-03-16T13:47:53;4.50;99.90
10828;DHT22;5467;59.334;13.512;2023-03-16T13:50:21;4.60;99.90
10828;DHT22;5467;59.334;13.512;2023-03-16T13:52:56;4.70;99.90
10828;DHT22;5467;59.334;13.512;2023-03-16T13:55:31;4.70;99.90
10828;DHT22;5467;59.334;13.512;2023-03-16T13:57:58;4.70;99.90
10828;DHT22;5467;59.334;13.512;2023-03-16T14:00:29;4.50;99.90
10828;DHT22;5467;59.334;13.512;2023-03-16T14:02:58;4.30;99.90
10828;DHT22;5467;59.334;13.512;2023-03-16T14:05:31;4.30;99.90
10828;DHT22;5467;59.334;13.512;2023-03-16T14:08:01;4.40;99.90
10828;DHT22;5467;59.334;13.512;2023-03-16T14:10:31;4.50;99.90
10828;DHT22;5467;59.334;13.512;2023-03-16T14:13:07;4.50;99.90
10828;DHT22;5467;59.334;13.512;2023-03-16T14:15:35;4.50;99.90
10828;DHT22;5467;59.334;13.512;2023-03-16T14:18:12;4.40;99.90
10828;DHT22;5467;59.334;13.512;2023-03-16T14:20:41;4.20;99.90
10828;DHT22;5467;59.334;13.512;2023-03-16T14:23:16;4.20;99.90
10828;DHT22;5467;59.334;13.512;2023-03-16T14:25:46;4.30;99.90
10828;DHT22;5467;59.334;13.512;2023-03-16T14:28:16;4.10;99.90
10828;DHT22;5467;59.334;13.512;2023-03-16T14:30:52;3.90;99.90
10828;DHT22;5467;59.334;13.512;2023-03-16T14:33:25;3.90;99.90
10828;DHT22;5467;59.334;13.512;2023-03-16T14:35:54;3.90;99.90
10828;DHT22;5467;59.334;13.512;2023-03-16T14:38:28;3.90;99.90
10828;DHT22;5467;59.334;13.512;2023-03-16T14:41:00;4.00;99.90
10828;DHT22;5467;59.334;13.512;2023-03-16T14:43:30;3.80;99.90
10828;DHT22;5467;59.334;13.512;2023-03-16T14:45:58;3.80;99.90
10828;DHT22;5467;59.334;13.512;2023-03-16T14:48:26;3.70;99.90
10828;DHT22;5467;59.334;13.512;2023-03-16T14:50:57;3.70;99.90
10828;DHT22;5467;59.334;13.512;2023-03-16T14:53:27;3.60;99.90
10828;DHT22;5467;59.334;13.512;2023-03-16T14:55:54;3.60;99.90
10828;DHT22;5467;59.334;13.512;2023-03-16T14:58:21;3.40;99.90
10828;DHT22;5467;59.334;13.512;2023-03-16T15:00:49;3.40;99.90
10828;DHT22;5467;59.334;13.512;2023-03-16T15:03:20;3.30;99.90
10828;DHT22;5467;59.334;13.512;2023-03-16T15:05:49;3.40;99.90
10828;DHT22;5467;59.334;13.512;2023-03-16T15:08:21;3.30;99.90
10828;DHT22;5467;59.334;13.512;2023-03-16T15:10:53;3.20;99.90
10828;DHT22;5467;59.334;13.512;2023-03-16T15:13:21;3.10;99.90
10828;DHT22;5467;59.334;13.512;2023-03-16T15:16:18;3.20;99.90
10828;DHT22;5467;59.334;13.512;2023-03-16T15:18:46;3.20;99.90
10828;DHT22;5467;59.334;13.512;2023-03-16T15:21:15;3.20;99.90
10828;DHT22;5467;59.334;13.512;2023-03-16T15:23:43;3.20;99.90
10828;DHT22;5467;59.334;13.512;2023-03-16T15:26:13;3.10;99.90
10828;DHT22;5467;59.334;13.512;2023-03-16T15:28:41;3.10;99.90
10828;DHT22;5467;59.334;13.512;2023-03-16T15:31:11;3.10;99.90
10828;DHT22;5467;59.334;13.512;2023-03-16T15:33:39;3.00;99.90
10828;DHT22;5467;59.334;13.512;2023-03-16T15:36:13;3.00;99.90
10828;DHT22;5467;59.334;13.512;2023-03-16T15:38:43;2.90;99.90
10828;DHT22;5467;59.334;13.512;2023-03-16T15:41:13;2.80;99.90
10828;DHT22;5467;59.334;13.512;2023-03-16T15:43:40;2.80;99.90
10828;DHT22;5467;59.334;13.512;2023-03-16T15:46:09;2.90;99.90
10828;DHT22;5467;59.334;13.512;2023-03-16T15:48:36;2.90;99.90
10828;DHT22;5467;59.334;13.512;2023-03-16T15:51:07;3.00;99.90
10828;DHT22;5467;59.334;13.512;2023-03-16T15:53:37;2.90;99.90
10828;DHT22;5467;59.334;13.512;2023-03-16T15:56:07;2.90;99.90